Cass, WV (24927)

3:36 PM EDT on August 24, 2016 (GMT -0400)
| | Change Station

Elev -9999 ft 0.00 °N, 0.00 °E | Updated

Partly Cloudy
Partly Cloudy
77 °F
Feels Like 77 °F
N
6
Wind Variable Wind from SSW
Gusts mph

Today
High -- | Low -- °F
--% Chance of Precip.
Yesterday
High -- | Low -- °F
Precip. -- in
Pressure 30.37 in
Visibility 10.0 miles
Clouds Scattered Clouds 2300 ft
Scattered Clouds 3600 ft
Mostly Cloudy 4300 ft
Dew Point 63 °F
Humidity 62%
Rainfall --
Snow Depth Not available.
6:42 AM 8:00 PM
Waning Gibbous, 54% visible
METAR KHSP 241915Z AUTO 18005KT 10SM SCT023 SCT036 BKN043 23/18 A3037 RMK AO2 T02330175
Pressure 30.37 in
Visibility 10.0 miles
Clouds Scattered Clouds 2300 ft
Scattered Clouds 3600 ft
Mostly Cloudy 4300 ft
Dew Point 63 °F
Humidity 62%
Rainfall --
Snow Depth Not available.
6:42 AM 8:00 PM
Waning Gibbous, 54% visible
METAR KHSP 241915Z AUTO 18005KT 10SM SCT023 SCT036 BKN043 23/18 A3037 RMK AO2 T02330175

10-Day Weather Forecast

Almanac

Astronomy

Aug. 24, 2016 Rise Set
Actual Time
Civil Twilight
Nautical Twilight
Astronomical Twilight
Moon
Length of Visible Light
Length of Day
Tomorrow will be .
, % of the Moon is Illuminated

Today's Extremes

State Highs State Lows

Community

WunderPhotos

Upload Photos

1,934,689 photos uploaded!

WunderBlog® & News

Nearby

Air Quality

  Air Quality AQ Index Pollutant
Not available.

Snow Depth

Station Depth Elevation

Earthquake Activity

City Distance Mag. Time & Date
Minimum magnitude displayed is 2.5.

Coastal Water Temperatures

Place Temperature

Stations

Nearby Weather Stations

Station Location Temp. Windchill Dew Point Humidity Wind Precip. Elev Updated Type
                   

Watches & Warnings

There are currently no watches in effect.